Latest Weather Observations for Colpoys Point

IDW60801

Issued at 10:03 pm WST Wednesday 8 July 2020 (issued every 10 minutes, with the page automatically refreshed every 10 minutes)

About weather observations | Map of weather stations | Latest weather observations for WA | Other Formats
Station Details ID: 009255 Name: COLPOYS POINT Lat: -32.23 Lon: 115.70 Height: 3.0 m
Data from the previous 72 hours. | See also: Recent months for locations in Western Australia
Date/Time
WST
Temp
°C
App
Temp
°C
Dew
Point
°C
Rel
Hum
%
Delta-T
°C
Wind Press
QNH
hPa
Press
MSL
hPa
Rain since
9am
mm
Dir  Spd
km/h
Gust
km/h
Spd
kts
Gust
kts
08/10:00pm - - - - - S 24 30 13 16 - - -
08/09:30pm - - - - - SSE 26 30 14 16 - - -
08/09:00pm - - - - - SSE 22 28 12 15 - - -
08/08:30pm - - - - - SSE 20 26 11 14 - - -
08/08:00pm - - - - - SSE 13 17 7 9 - - -
08/07:30pm - - - - - SSE 15 17 8 9 - - -
08/07:00pm - - - - - SE 19 22 10 12 - - -
08/06:30pm - - - - - S 22 26 12 14 - - -
08/06:00pm - - - - - S 24 30 13 16 - - -
08/05:30pm - - - - - SSW 28 32 15 17 - - -
08/05:00pm - - - - - SSW 28 33 15 18 - - -
08/04:30pm - - - - - SSW 20 26 11 14 - - -
08/04:00pm - - - - - S 17 20 9 11 - - -
08/03:30pm - - - - - S 20 28 11 15 - - -
08/03:00pm - - - - - SSE 17 22 9 12 - - -
08/02:30pm - - - - - S 24 28 13 15 - - -
08/02:00pm - - - - - S 20 28 11 15 - - -
08/01:30pm - - - - - S 6 9 3 5 - - -
08/01:00pm - - - - - S 6 9 3 5 - - -
08/12:30pm - - - - - S 7 9 4 5 - - -
08/12:00pm - - - - - CALM 0 0 0 0 - - -
08/11:30am - - - - - - 7 15 4 8 - - -
08/11:00am - - - - - SE 6 11 3 6 - - -
08/10:30am - - - - - E 6 9 3 5 - - -
08/10:00am - - - - - E 13 15 7 8 - - -
08/09:30am - - - - - E 9 11 5 6 - - -
08/09:00am - - - - - E 7 9 4 5 - - -
08/08:30am - - - - - ESE 9 11 5 6 - - -
08/08:00am - - - - - ESE 9 13 5 7 - - -
08/07:30am - - - - - E 13 15 7 8 - - -
08/07:00am - - - - - ESE 13 17 7 9 - - -
08/06:30am - - - - - ESE 9 11 5 6 - - -
08/06:00am - - - - - ESE 9 15 5 8 - - -
08/05:30am - - - - - ESE 13 17 7 9 - - -
08/05:00am - - - - - ESE 15 20 8 11 - - -
08/04:30am - - - - - E 13 17 7 9 - - -
08/04:00am - - - - - SSW 24 30 13 16 - - -
08/03:30am - - - - - SW 22 30 12 16 - - -
08/03:00am - - - - - SW 24 33 13 18 - - -
08/02:30am - - - - - SW 28 37 15 20 - - -
08/02:00am - - - - - SW 28 37 15 20 - - -
08/01:30am - - - - - SW 28 33 15 18 - - -
08/01:00am - - - - - SW 28 41 15 22 - - -
08/12:30am - - - - - SW 32 41 17 22 - - -
08/12:00am - - - - - SW 33 41 18 22 - - -
 
Date/Time
WST
Temp
°C
App
Temp
°C
Dew
Point
°C
Rel
Hum
%
Delta-T
°C
Wind Press
QNH
hPa
Press
MSL
hPa
Rain since
9am
mm
Dir  Spd
km/h
Gust
km/h
Spd
kts
Gust
kts
07/11:30pm - - - - - SW 33 46 18 25 - - -
07/11:00pm - - - - - SSW 28 41 15 22 - - -
07/10:30pm - - - - - SW 30 41 16 22 - - -
07/10:00pm - - - - - WNW 28 39 15 21 - - -
07/09:30pm - - - - - WNW 26 39 14 21 - - -
07/09:00pm - - - - - WNW 24 33 13 18 - - -
07/08:30pm - - - - - W 22 32 12 17 - - -
07/08:00pm - - - - - WNW 28 39 15 21 - - -
07/07:30pm - - - - - WNW 22 32 12 17 - - -
07/07:00pm - - - - - WNW 20 30 11 16 - - -
07/06:30pm - - - - - W 30 39 16 21 - - -
07/06:00pm - - - - - WNW 26 37 14 20 - - -
07/05:30pm - - - - - NW 11 17 6 9 - - -
07/05:00pm - - - - - WNW 28 41 15 22 - - -
07/04:30pm - - - - - WNW 20 37 11 20 - - -
07/04:00pm - - - - - WNW 20 28 11 15 - - -
07/03:30pm - - - - - WNW 22 35 12 19 - - -
07/03:00pm - - - - - WNW 22 32 12 17 - - -
07/02:30pm - - - - - WNW 17 30 9 16 - - -
07/02:00pm - - - - - W 19 26 10 14 - - -
07/01:30pm - - - - - W 20 32 11 17 - - -
07/01:00pm - - - - - W 24 33 13 18 - - -
07/12:30pm - - - - - W 20 30 11 16 - - -
07/12:00pm - - - - - W 24 33 13 18 - - -
07/11:30am - - - - - WNW 22 32 12 17 - - -
07/11:00am - - - - - W 22 32 12 17 - - -
07/10:30am - - - - - W 20 32 11 17 - - -
07/10:00am - - - - - WNW 22 32 12 17 - - -
07/09:30am - - - - - W 22 30 12 16 - - -
07/09:00am - - - - - W 22 35 12 19 - - -
07/08:30am - - - - - WNW 20 32 11 17 - - -
07/08:00am - - - - - WNW 28 41 15 22 - - -
07/07:30am - - - - - W 17 26 9 14 - - -
07/07:00am - - - - - W 19 26 10 14 - - -
07/06:30am - - - - - W 22 30 12 16 - - -
07/06:00am - - - - - W 24 33 13 18 - - -
07/05:30am - - - - - WNW 19 33 10 18 - - -
07/05:10am - - - - - WNW 28 46 15 25 - - -
07/05:00am - - - - - W 26 44 14 24 - - -
07/04:30am - - - - - WNW 20 30 11 16 - - -
07/04:00am - - - - - W 32 43 17 23 - - -
07/03:51am - - - - - W 28 46 15 25 - - -
07/03:30am - - - - - W 20 30 11 16 - - -
07/03:00am - - - - - W 28 39 15 21 - - -
07/02:30am - - - - - W 28 39 15 21 - - -
07/02:00am - - - - - W 30 43 16 23 - - -
07/01:30am - - - - - W 26 37 14 20 - - -
07/01:00am - - - - - W 26 41 14 22 - - -
07/12:30am - - - - - W 26 41 14 22 - - -
07/12:07am - - - - - W 30 48 16 26 - - -
07/12:00am - - - - - W 32 46 17 25 - - -
 
Date/Time
WST
Temp
°C
App
Temp
°C
Dew
Point
°C
Rel
Hum
%
Delta-T
°C
Wind Press
QNH
hPa
Press
MSL
hPa
Rain since
9am
mm
Dir  Spd
km/h
Gust
km/h
Spd
kts
Gust
kts
06/11:49pm - - - - - W 30 48 16 26 - - -
06/11:30pm - - - - - W 30 39 16 21 - - -
06/11:00pm - - - - - W 30 41 16 22 - - -
06/10:30pm - - - - - W 28 44 15 24 - - -
06/10:00pm - - - - - W 30 41 16 22 - - -
06/09:30pm - - - - - W 33 46 18 25 - - -
06/09:00pm - - - - - WNW 28 39 15 21 - - -
06/08:30pm - - - - - WNW 30 43 16 23 - - -
06/08:00pm - - - - - W 33 46 18 25 - - -
06/07:37pm - - - - - WNW 30 48 16 26 - - -
06/07:30pm - - - - - WNW 32 48 17 26 - - -
06/07:05pm - - - - - W 35 54 19 29 - - -
06/07:00pm - - - - - W 35 50 19 27 - - -
06/06:48pm - - - - - W 37 56 20 30 - - -
06/06:30pm - - - - - W 37 52 20 28 - - -
06/06:01pm - - - - - W 32 50 17 27 - - -
06/06:00pm - - - - - W 33 50 18 27 - - -
06/05:30pm - - - - - WNW 32 50 17 27 - - -
06/05:00pm - - - - - WNW 32 54 17 29 - - -
06/04:41pm - - - - - WNW 33 54 18 29 - - -
06/04:30pm - - - - - WNW 33 50 18 27 - - -
06/04:19pm - - - - - NW 30 48 16 26 - - -
06/04:00pm - - - - - WNW 32 48 17 26 - - -
06/03:30pm - - - - - NW 33 54 18 29 - - -
06/03:13pm - - - - - NW 28 46 15 25 - - -
06/03:00pm - - - - - NW 30 41 16 22 - - -
06/02:33pm - - - - - WNW 32 50 17 27 - - -
06/02:30pm - - - - - WNW 33 50 18 27 - - -
06/02:00pm - - - - - NW 28 44 15 24 - - -
06/01:30pm - - - - - NW 32 46 17 25 - - -
06/01:00pm - - - - - NW 32 52 17 28 - - -
06/12:53pm - - - - - NW 30 48 16 26 - - -
06/12:30pm - - - - - NW 28 44 15 24 - - -
06/12:00pm - - - - - NW 35 56 19 30 - - -
06/11:30am - - - - - NW 30 48 16 26 - - -
06/11:05am - - - - - NW 28 46 15 25 - - -
06/11:00am - - - - - NW 32 46 17 25 - - -
06/10:30am - - - - - NW 30 52 16 28 - - -
06/10:04am - - - - - NW 28 50 15 27 - - -
06/10:00am - - - - - NW 26 41 14 22 - - -
06/09:30am - - - - - NW 26 39 14 21 - - -
06/09:04am - - - - - NW 28 48 15 26 - - -
06/09:00am - - - - - NW 24 41 13 22 - - -
06/08:42am - - - - - NW 28 48 15 26 - - -
06/08:30am - - - - - NW 24 41 13 22 - - -
06/08:19am - - - - - NW 28 48 15 26 - - -
06/08:00am - - - - - NW 24 43 13 23 - - -
06/07:30am - - - - - NW 33 52 18 28 - - -
06/07:26am - - - - - NW 28 48 15 26 - - -
06/07:00am - - - - - NW 24 39 13 21 - - -
06/06:30am - - - - - NW 15 20 8 11 - - -
06/06:00am - - - - - NW 19 33 10 18 - - -
06/05:30am - - - - - NNW 19 30 10 16 - - -
06/05:00am - - - - - NW 19 33 10 18 - - -
06/04:30am - - - - - WNW 22 44 12 24 - - -
06/04:00am - - - - - NW 17 30 9 16 - - -
06/03:30am - - - - - NW 15 26 8 14 - - -
06/03:00am - - - - - WNW 24 39 13 21 - - -
06/02:38am - - - - - WNW 30 48 16 26 - - -
06/02:30am - - - - - WNW 32 48 17 26 - - -
06/02:24am - - - - - NW 26 48 14 26 - - -
06/02:00am - - - - - NNW 22 37 12 20 - - -
06/01:30am - - - - - NNW 20 28 11 15 - - -
06/01:00am - - - - - NW 20 28 11 15 - - -
06/12:30am - - - - - NNW 13 19 7 10 - - -
06/12:00am - - - - - N 13 19 7 10 - - -
 
Date/Time
WST
Temp
°C
App
Temp
°C
Dew
Point
°C
Rel
Hum
%
Delta-T
°C
Wind Press
QNH
hPa
Press
MSL
hPa
Rain since
9am
mm
Dir  Spd
km/h
Gust
km/h
Spd
kts
Gust
kts
05/11:30pm - - - - - NNW 13 19 7 10 - - -
05/11:00pm - - - - - N 9 13 5 7 - - -
05/10:30pm - - - - - NW 11 19 6 10 - - -

Other formats

Comma delimited format used in spreadsheet applications
http://www.bom.gov.au/fwo/IDW60801/IDW60801.99255.axf

JavaScript Object Notation format (JSON) in row-major order
http://www.bom.gov.au/fwo/IDW60801/IDW60801.99255.json

Data quality

Most of these data are generated automatically and are frequently updated. Quality checks on data are not normally performed. It is possible for incorrect values to appear. Refer to information at About Latest Weather Observations and please check the disclaimer before using these data.